sensor_id;sensor_type;location;lat;lon;timestamp;temperature;humidity
16040;DHT22;8124;48.634;8.120;2023-03-23T00:02:36;16.50;98.40
16040;DHT22;8124;48.634;8.120;2023-03-23T00:07:38;16.60;98.20
16040;DHT22;8124;48.634;8.120;2023-03-23T00:12:47;16.50;97.70
16040;DHT22;8124;48.634;8.120;2023-03-23T00:17:50;16.60;97.40
16040;DHT22;8124;48.634;8.120;2023-03-23T00:22:52;16.60;96.90
16040;DHT22;8124;48.634;8.120;2023-03-23T00:27:55;16.70;96.60
16040;DHT22;8124;48.634;8.120;2023-03-23T00:32:57;16.70;96.10
16040;DHT22;8124;48.634;8.120;2023-03-23T00:37:59;16.80;95.80
16040;DHT22;8124;48.634;8.120;2023-03-23T00:43:02;16.80;95.40
16040;DHT22;8124;48.634;8.120;2023-03-23T00:48:05;16.70;94.90
16040;DHT22;8124;48.634;8.120;2023-03-23T00:53:07;16.90;94.80
16040;DHT22;8124;48.634;8.120;2023-03-23T00:58:11;16.80;94.30
16040;DHT22;8124;48.634;8.120;2023-03-23T01:03:13;16.90;94.20
16040;DHT22;8124;48.634;8.120;2023-03-23T01:08:19;16.90;94.00
16040;DHT22;8124;48.634;8.120;2023-03-23T01:13:23;16.90;93.80
16040;DHT22;8124;48.634;8.120;2023-03-23T01:18:25;16.90;93.60
16040;DHT22;8124;48.634;8.120;2023-03-23T01:23:26;16.90;93.50
16040;DHT22;8124;48.634;8.120;2023-03-23T01:28:30;16.80;93.60
16040;DHT22;8124;48.634;8.120;2023-03-23T01:33:32;16.90;93.60
16040;DHT22;8124;48.634;8.120;2023-03-23T01:38:34;17.00;93.60
16040;DHT22;8124;48.634;8.120;2023-03-23T01:43:54;17.00;93.50
16040;DHT22;8124;48.634;8.120;2023-03-23T01:49:07;17.10;93.40
16040;DHT22;8124;48.634;8.120;2023-03-23T01:54:12;17.00;93.10
16040;DHT22;8124;48.634;8.120;2023-03-23T01:59:22;17.00;93.00
16040;DHT22;8124;48.634;8.120;2023-03-23T02:04:36;17.00;92.80
16040;DHT22;8124;48.634;8.120;2023-03-23T02:09:38;17.00;92.70
16040;DHT22;8124;48.634;8.120;2023-03-23T02:14:41;17.10;92.70
16040;DHT22;8124;48.634;8.120;2023-03-23T02:19:55;17.10;92.60
16040;DHT22;8124;48.634;8.120;2023-03-23T02:25:40;17.20;92.40
16040;DHT22;8124;48.634;8.120;2023-03-23T02:31:00;17.20;92.20
16040;DHT22;8124;48.634;8.120;2023-03-23T02:36:14;17.20;92.00
16040;DHT22;8124;48.634;8.120;2023-03-23T02:41:24;17.20;92.00
16040;DHT22;8124;48.634;8.120;2023-03-23T02:46:28;17.20;92.00
16040;DHT22;8124;48.634;8.120;2023-03-23T02:51:32;17.20;91.80
16040;DHT22;8124;48.634;8.120;2023-03-23T02:56:37;17.30;92.00
16040;DHT22;8124;48.634;8.120;2023-03-23T03:01:51;17.40;92.00
16040;DHT22;8124;48.634;8.120;2023-03-23T03:07:07;17.40;91.90
16040;DHT22;8124;48.634;8.120;2023-03-23T03:12:15;17.30;91.70
16040;DHT22;8124;48.634;8.120;2023-03-23T03:17:24;17.40;91.70
16040;DHT22;8124;48.634;8.120;2023-03-23T03:22:28;17.40;91.50
16040;DHT22;8124;48.634;8.120;2023-03-23T03:27:31;17.50;91.40
16040;DHT22;8124;48.634;8.120;2023-03-23T03:32:46;17.50;91.30
16040;DHT22;8124;48.634;8.120;2023-03-23T03:37:51;17.50;90.70
16040;DHT22;8124;48.634;8.120;2023-03-23T03:42:54;17.60;90.90
16040;DHT22;8124;48.634;8.120;2023-03-23T03:47:56;17.60;90.80
16040;DHT22;8124;48.634;8.120;2023-03-23T03:52:59;17.60;90.50
16040;DHT22;8124;48.634;8.120;2023-03-23T03:58:01;17.60;90.40
16040;DHT22;8124;48.634;8.120;2023-03-23T04:03:27;17.60;90.10
16040;DHT22;8124;48.634;8.120;2023-03-23T04:08:41;17.60;90.00
16040;DHT22;8124;48.634;8.120;2023-03-23T04:13:43;17.60;89.70
16040;DHT22;8124;48.634;8.120;2023-03-23T04:18:53;17.60;89.30
16040;DHT22;8124;48.634;8.120;2023-03-23T04:23:59;17.60;89.10
16040;DHT22;8124;48.634;8.120;2023-03-23T04:29:02;17.70;89.00
16040;DHT22;8124;48.634;8.120;2023-03-23T04:34:09;17.60;88.70
16040;DHT22;8124;48.634;8.120;2023-03-23T04:39:19;17.60;88.50
16040;DHT22;8124;48.634;8.120;2023-03-23T04:44:21;17.60;88.30
16040;DHT22;8124;48.634;8.120;2023-03-23T04:49:34;17.60;88.10
16040;DHT22;8124;48.634;8.120;2023-03-23T04:54:49;17.60;88.10
16040;DHT22;8124;48.634;8.120;2023-03-23T04:59:51;17.60;87.90
16040;DHT22;8124;48.634;8.120;2023-03-23T05:04:59;17.50;87.80
16040;DHT22;8124;48.634;8.120;2023-03-23T05:10:06;17.60;88.10
16040;DHT22;8124;48.634;8.120;2023-03-23T05:15:10;17.50;88.00
16040;DHT22;8124;48.634;8.120;2023-03-23T05:20:13;17.50;87.90
16040;DHT22;8124;48.634;8.120;2023-03-23T05:25:21;17.60;88.40
16040;DHT22;8124;48.634;8.120;2023-03-23T05:30:32;17.60;88.70
16040;DHT22;8124;48.634;8.120;2023-03-23T05:35:33;17.40;89.10
16040;DHT22;8124;48.634;8.120;2023-03-23T05:40:37;17.20;90.00
16040;DHT22;8124;48.634;8.120;2023-03-23T05:45:47;17.10;91.30
16040;DHT22;8124;48.634;8.120;2023-03-23T05:50:51;16.90;92.70
16040;DHT22;8124;48.634;8.120;2023-03-23T05:55:59;16.90;94.90
16040;DHT22;8124;48.634;8.120;2023-03-23T06:01:20;16.90;97.20
16040;DHT22;8124;48.634;8.120;2023-03-23T06:06:22;16.60;99.70
16040;DHT22;8124;48.634;8.120;2023-03-23T06:11:35;16.70;99.90
16040;DHT22;8124;48.634;8.120;2023-03-23T06:17:09;16.50;99.90
16040;DHT22;8124;48.634;8.120;2023-03-23T06:22:11;16.40;99.90
16040;DHT22;8124;48.634;8.120;2023-03-23T06:27:38;16.40;99.90
16040;DHT22;8124;48.634;8.120;2023-03-23T06:32:42;16.40;99.90
16040;DHT22;8124;48.634;8.120;2023-03-23T06:37:47;16.50;99.90
16040;DHT22;8124;48.634;8.120;2023-03-23T06:42:59;16.50;99.90
16040;DHT22;8124;48.634;8.120;2023-03-23T06:48:20;16.50;99.90
16040;DHT22;8124;48.634;8.120;2023-03-23T06:53:23;16.30;99.90
16040;DHT22;8124;48.634;8.120;2023-03-23T06:58:30;16.50;99.90
16040;DHT22;8124;48.634;8.120;2023-03-23T07:03:32;16.50;99.90
16040;DHT22;8124;48.634;8.120;2023-03-23T07:08:35;16.50;99.90
16040;DHT22;8124;48.634;8.120;2023-03-23T07:13:39;16.50;99.90
16040;DHT22;8124;48.634;8.120;2023-03-23T07:18:41;16.40;99.90
16040;DHT22;8124;48.634;8.120;2023-03-23T07:23:44;16.40;99.90
16040;DHT22;8124;48.634;8.120;2023-03-23T07:28:54;16.10;99.90
16040;DHT22;8124;48.634;8.120;2023-03-23T07:34:12;16.20;99.90
16040;DHT22;8124;48.634;8.120;2023-03-23T07:39:35;16.10;99.90
16040;DHT22;8124;48.634;8.120;2023-03-23T07:44:39;16.10;99.90
16040;DHT22;8124;48.634;8.120;2023-03-23T07:49:44;16.10;99.90
16040;DHT22;8124;48.634;8.120;2023-03-23T07:55:11;16.10;99.90
16040;DHT22;8124;48.634;8.120;2023-03-23T08:00:37;16.00;99.90
16040;DHT22;8124;48.634;8.120;2023-03-23T08:05:41;15.90;99.90
16040;DHT22;8124;48.634;8.120;2023-03-23T08:11:01;15.90;99.90
16040;DHT22;8124;48.634;8.120;2023-03-23T08:16:24;15.90;99.90
16040;DHT22;8124;48.634;8.120;2023-03-23T08:21:37;16.10;99.90
16040;DHT22;8124;48.634;8.120;2023-03-23T08:26:57;16.00;99.90
16040;DHT22;8124;48.634;8.120;2023-03-23T08:32:26;16.10;99.90
16040;DHT22;8124;48.634;8.120;2023-03-23T08:37:47;16.10;99.90
16040;DHT22;8124;48.634;8.120;2023-03-23T08:43:13;16.20;99.90
16040;DHT22;8124;48.634;8.120;2023-03-23T08:48:36;16.20;99.90
16040;DHT22;8124;48.634;8.120;2023-03-23T08:53:58;16.20;99.90
16040;DHT22;8124;48.634;8.120;2023-03-23T08:59:32;16.20;99.90
16040;DHT22;8124;48.634;8.120;2023-03-23T09:04:52;16.10;99.90
16040;DHT22;8124;48.634;8.120;2023-03-23T09:10:20;16.10;99.90
16040;DHT22;8124;48.634;8.120;2023-03-23T09:15:22;16.20;99.90
16040;DHT22;8124;48.634;8.120;2023-03-23T09:20:27;16.30;99.90
16040;DHT22;8124;48.634;8.120;2023-03-23T09:25:29;16.40;99.90
16040;DHT22;8124;48.634;8.120;2023-03-23T09:30:32;16.40;99.90
16040;DHT22;8124;48.634;8.120;2023-03-23T09:35:38;16.40;99.90
16040;DHT22;8124;48.634;8.120;2023-03-23T09:40:46;16.50;99.90
16040;DHT22;8124;48.634;8.120;2023-03-23T09:45:59;16.50;99.90
16040;DHT22;8124;48.634;8.120;2023-03-23T09:51:11;16.60;99.90
16040;DHT22;8124;48.634;8.120;2023-03-23T09:56:15;16.60;99.90
16040;DHT22;8124;48.634;8.120;2023-03-23T10:01:21;16.70;99.90
16040;DHT22;8124;48.634;8.120;2023-03-23T10:06:25;16.70;99.90
16040;DHT22;8124;48.634;8.120;2023-03-23T10:11:33;16.70;99.90
16040;DHT22;8124;48.634;8.120;2023-03-23T10:16:44;16.80;99.90
16040;DHT22;8124;48.634;8.120;2023-03-23T10:21:52;16.70;99.90
16040;DHT22;8124;48.634;8.120;2023-03-23T10:26:59;16.70;99.90
16040;DHT22;8124;48.634;8.120;2023-03-23T10:32:08;16.70;99.90
16040;DHT22;8124;48.634;8.120;2023-03-23T10:37:17;16.80;99.90
16040;DHT22;8124;48.634;8.120;2023-03-23T10:42:28;16.90;99.90
16040;DHT22;8124;48.634;8.120;2023-03-23T10:47:30;16.90;99.90
16040;DHT22;8124;48.634;8.120;2023-03-23T10:52:35;16.90;99.90
16040;DHT22;8124;48.634;8.120;2023-03-23T10:57:40;17.00;99.90
16040;DHT22;8124;48.634;8.120;2023-03-23T11:02:44;16.90;99.90
16040;DHT22;8124;48.634;8.120;2023-03-23T11:07:51;16.90;99.90
16040;DHT22;8124;48.634;8.120;2023-03-23T11:12:57;16.90;99.90
16040;DHT22;8124;48.634;8.120;2023-03-23T11:18:01;17.00;99.90
16040;DHT22;8124;48.634;8.120;2023-03-23T11:23:11;17.00;99.90
16040;DHT22;8124;48.634;8.120;2023-03-23T11:28:16;17.10;99.90
16040;DHT22;8124;48.634;8.120;2023-03-23T11:33:18;17.20;99.90
16040;DHT22;8124;48.634;8.120;2023-03-23T11:38:23;17.10;99.90
16040;DHT22;8124;48.634;8.120;2023-03-23T11:43:28;17.20;99.90
16040;DHT22;8124;48.634;8.120;2023-03-23T11:48:35;17.30;99.90
16040;DHT22;8124;48.634;8.120;2023-03-23T11:53:47;17.40;99.90
16040;DHT22;8124;48.634;8.120;2023-03-23T11:58:53;17.40;99.90
16040;DHT22;8124;48.634;8.120;2023-03-23T12:09:33;17.70;99.90
16040;DHT22;8124;48.634;8.120;2023-03-23T12:14:44;17.70;99.90
16040;DHT22;8124;48.634;8.120;2023-03-23T12:19:57;17.70;99.90
16040;DHT22;8124;48.634;8.120;2023-03-23T12:25:36;17.70;99.90
16040;DHT22;8124;48.634;8.120;2023-03-23T12:30:44;17.70;99.90
16040;DHT22;8124;48.634;8.120;2023-03-23T12:35:59;17.70;99.90
16040;DHT22;8124;48.634;8.120;2023-03-23T12:41:12;17.60;99.90
16040;DHT22;8124;48.634;8.120;2023-03-23T12:51:58;17.90;99.90
16040;DHT22;8124;48.634;8.120;2023-03-23T12:57:09;17.90;99.90
16040;DHT22;8124;48.634;8.120;2023-03-23T13:02:19;17.90;99.90
16040;DHT22;8124;48.634;8.120;2023-03-23T13:07:25;18.00;99.90
16040;DHT22;8124;48.634;8.120;2023-03-23T13:12:30;18.00;99.90
16040;DHT22;8124;48.634;8.120;2023-03-23T13:17:39;18.00;99.90
16040;DHT22;8124;48.634;8.120;2023-03-23T13:22:50;18.10;99.90
16040;DHT22;8124;48.634;8.120;2023-03-23T13:27:59;18.10;99.90
16040;DHT22;8124;48.634;8.120;2023-03-23T13:33:03;18.20;99.90
16040;DHT22;8124;48.634;8.120;2023-03-23T13:38:15;18.20;99.90
16040;DHT22;8124;48.634;8.120;2023-03-23T13:43:31;18.10;99.90
16040;DHT22;8124;48.634;8.120;2023-03-23T13:48:41;18.10;99.90
16040;DHT22;8124;48.634;8.120;2023-03-23T13:53:46;18.20;99.90
16040;DHT22;8124;48.634;8.120;2023-03-23T13:58:50;18.20;99.90
16040;DHT22;8124;48.634;8.120;2023-03-23T14:03:54;18.10;99.90
16040;DHT22;8124;48.634;8.120;2023-03-23T14:09:05;18.10;99.90
16040;DHT22;8124;48.634;8.120;2023-03-23T14:14:16;18.20;99.90
16040;DHT22;8124;48.634;8.120;2023-03-23T14:19:22;18.40;99.90
16040;DHT22;8124;48.634;8.120;2023-03-23T14:24:25;18.40;99.90
16040;DHT22;8124;48.634;8.120;2023-03-23T14:29:29;18.60;99.90
16040;DHT22;8124;48.634;8.120;2023-03-23T14:34:34;18.60;99.90
16040;DHT22;8124;48.634;8.120;2023-03-23T14:39:36;18.60;99.90
16040;DHT22;8124;48.634;8.120;2023-03-23T14:44:42;18.70;99.90
16040;DHT22;8124;48.634;8.120;2023-03-23T14:49:45;18.80;99.90
16040;DHT22;8124;48.634;8.120;2023-03-23T14:54:47;18.80;99.90
16040;DHT22;8124;48.634;8.120;2023-03-23T14:59:51;18.90;99.90
16040;DHT22;8124;48.634;8.120;2023-03-23T15:04:56;18.90;99.90
16040;DHT22;8124;48.634;8.120;2023-03-23T15:09:58;18.90;99.90
16040;DHT22;8124;48.634;8.120;2023-03-23T15:15:05;18.70;99.90
16040;DHT22;8124;48.634;8.120;2023-03-23T15:20:10;18.60;99.90
16040;DHT22;8124;48.634;8.120;2023-03-23T15:25:18;18.60;99.90
16040;DHT22;8124;48.634;8.120;2023-03-23T15:30:33;18.60;99.90
16040;DHT22;8124;48.634;8.120;2023-03-23T15:35:39;18.40;99.90
16040;DHT22;8124;48.634;8.120;2023-03-23T15:40:41;18.50;99.90
16040;DHT22;8124;48.634;8.120;2023-03-23T15:45:57;18.40;99.90
16040;DHT22;8124;48.634;8.120;2023-03-23T15:51:04;18.40;99.90
16040;DHT22;8124;48.634;8.120;2023-03-23T15:56:08;18.40;99.90
16040;DHT22;8124;48.634;8.120;2023-03-23T16:01:13;18.40;99.90
16040;DHT22;8124;48.634;8.120;2023-03-23T16:06:18;18.30;99.90
16040;DHT22;8124;48.634;8.120;2023-03-23T16:11:27;18.30;99.90
16040;DHT22;8124;48.634;8.120;2023-03-23T16:16:34;18.30;99.90
16040;DHT22;8124;48.634;8.120;2023-03-23T16:21:39;18.30;99.50
16040;DHT22;8124;48.634;8.120;2023-03-23T16:26:42;18.30;98.60
16040;DHT22;8124;48.634;8.120;2023-03-23T16:31:46;18.20;97.80
16040;DHT22;8124;48.634;8.120;2023-03-23T16:36:49;18.30;97.30
16040;DHT22;8124;48.634;8.120;2023-03-23T16:41:58;18.30;96.90
16040;DHT22;8124;48.634;8.120;2023-03-23T16:47:03;18.30;96.50
16040;DHT22;8124;48.634;8.120;2023-03-23T16:52:07;18.30;96.20
16040;DHT22;8124;48.634;8.120;2023-03-23T16:57:10;18.20;96.00
16040;DHT22;8124;48.634;8.120;2023-03-23T17:02:14;18.30;95.90
16040;DHT22;8124;48.634;8.120;2023-03-23T17:07:17;18.30;95.60
16040;DHT22;8124;48.634;8.120;2023-03-23T17:12:21;18.20;95.20
16040;DHT22;8124;48.634;8.120;2023-03-23T17:17:25;18.30;95.00
16040;DHT22;8124;48.634;8.120;2023-03-23T17:22:29;18.30;94.80
16040;DHT22;8124;48.634;8.120;2023-03-23T17:27:32;18.20;94.40
16040;DHT22;8124;48.634;8.120;2023-03-23T17:32:36;18.20;94.10
16040;DHT22;8124;48.634;8.120;2023-03-23T17:37:40;18.20;94.00
16040;DHT22;8124;48.634;8.120;2023-03-23T17:42:47;18.20;93.80
16040;DHT22;8124;48.634;8.120;2023-03-23T17:47:51;18.20;93.50
16040;DHT22;8124;48.634;8.120;2023-03-23T17:52:54;18.20;93.30
16040;DHT22;8124;48.634;8.120;2023-03-23T17:57:58;18.10;93.20
16040;DHT22;8124;48.634;8.120;2023-03-23T18:03:02;18.20;93.10
16040;DHT22;8124;48.634;8.120;2023-03-23T18:08:06;18.20;92.90
16040;DHT22;8124;48.634;8.120;2023-03-23T18:13:09;18.30;92.80
16040;DHT22;8124;48.634;8.120;2023-03-23T18:18:14;18.20;92.60
16040;DHT22;8124;48.634;8.120;2023-03-23T18:23:16;18.10;92.30
16040;DHT22;8124;48.634;8.120;2023-03-23T18:28:20;18.20;92.30
16040;DHT22;8124;48.634;8.120;2023-03-23T18:33:24;18.20;92.10
16040;DHT22;8124;48.634;8.120;2023-03-23T18:38:28;18.20;92.10
16040;DHT22;8124;48.634;8.120;2023-03-23T18:43:31;18.20;91.90
16040;DHT22;8124;48.634;8.120;2023-03-23T18:48:35;18.20;91.80
16040;DHT22;8124;48.634;8.120;2023-03-23T18:53:38;18.20;91.70
16040;DHT22;8124;48.634;8.120;2023-03-23T18:58:42;18.20;91.60
16040;DHT22;8124;48.634;8.120;2023-03-23T19:03:46;18.20;91.60
16040;DHT22;8124;48.634;8.120;2023-03-23T19:08:50;18.30;91.60
16040;DHT22;8124;48.634;8.120;2023-03-23T19:13:56;18.20;91.50
16040;DHT22;8124;48.634;8.120;2023-03-23T19:19:05;18.30;91.40
16040;DHT22;8124;48.634;8.120;2023-03-23T19:24:10;18.30;91.30
16040;DHT22;8124;48.634;8.120;2023-03-23T19:29:15;18.30;91.20
16040;DHT22;8124;48.634;8.120;2023-03-23T19:34:23;18.30;91.00
16040;DHT22;8124;48.634;8.120;2023-03-23T19:39:27;18.30;90.80
16040;DHT22;8124;48.634;8.120;2023-03-23T19:44:30;18.30;90.70
16040;DHT22;8124;48.634;8.120;2023-03-23T19:49:34;18.40;90.50
16040;DHT22;8124;48.634;8.120;2023-03-23T19:54:38;18.30;90.30
16040;DHT22;8124;48.634;8.120;2023-03-23T19:59:41;18.30;90.10
16040;DHT22;8124;48.634;8.120;2023-03-23T20:04:46;18.30;89.80
16040;DHT22;8124;48.634;8.120;2023-03-23T20:09:49;18.40;89.60
16040;DHT22;8124;48.634;8.120;2023-03-23T20:14:52;18.40;89.30
16040;DHT22;8124;48.634;8.120;2023-03-23T20:19:57;18.40;89.00
16040;DHT22;8124;48.634;8.120;2023-03-23T20:25:00;18.40;88.70
16040;DHT22;8124;48.634;8.120;2023-03-23T20:30:05;18.40;88.50
16040;DHT22;8124;48.634;8.120;2023-03-23T20:35:10;18.40;88.30
16040;DHT22;8124;48.634;8.120;2023-03-23T20:40:15;18.40;88.00
16040;DHT22;8124;48.634;8.120;2023-03-23T20:45:19;18.40;87.80
16040;DHT22;8124;48.634;8.120;2023-03-23T20:50:23;18.50;87.60
16040;DHT22;8124;48.634;8.120;2023-03-23T20:55:27;18.50;87.40
16040;DHT22;8124;48.634;8.120;2023-03-23T21:00:30;18.60;87.40
16040;DHT22;8124;48.634;8.120;2023-03-23T21:05:34;18.50;87.00
16040;DHT22;8124;48.634;8.120;2023-03-23T21:10:38;18.50;86.70
16040;DHT22;8124;48.634;8.120;2023-03-23T21:15:41;18.40;86.50
16040;DHT22;8124;48.634;8.120;2023-03-23T21:20:46;18.50;86.50
16040;DHT22;8124;48.634;8.120;2023-03-23T21:25:51;18.50;86.70
16040;DHT22;8124;48.634;8.120;2023-03-23T21:30:57;18.50;86.50
16040;DHT22;8124;48.634;8.120;2023-03-23T21:36:02;18.50;86.40
16040;DHT22;8124;48.634;8.120;2023-03-23T21:41:07;18.50;86.40
16040;DHT22;8124;48.634;8.120;2023-03-23T21:46:12;18.50;86.20
16040;DHT22;8124;48.634;8.120;2023-03-23T21:51:21;18.50;86.10
16040;DHT22;8124;48.634;8.120;2023-03-23T21:56:25;18.60;86.30
16040;DHT22;8124;48.634;8.120;2023-03-23T22:01:28;18.60;86.10
16040;DHT22;8124;48.634;8.120;2023-03-23T22:06:33;18.60;86.00
16040;DHT22;8124;48.634;8.120;2023-03-23T22:11:37;18.60;85.70
16040;DHT22;8124;48.634;8.120;2023-03-23T22:16:40;18.50;85.50
16040;DHT22;8124;48.634;8.120;2023-03-23T22:21:44;18.40;86.50
16040;DHT22;8124;48.634;8.120;2023-03-23T22:26:47;18.40;87.70
16040;DHT22;8124;48.634;8.120;2023-03-23T22:31:51;18.40;89.20
16040;DHT22;8124;48.634;8.120;2023-03-23T22:36:55;18.40;90.30
16040;DHT22;8124;48.634;8.120;2023-03-23T22:41:58;18.40;90.70
16040;DHT22;8124;48.634;8.120;2023-03-23T22:47:01;18.40;91.00
16040;DHT22;8124;48.634;8.120;2023-03-23T22:52:05;18.40;91.40
16040;DHT22;8124;48.634;8.120;2023-03-23T22:57:10;18.40;91.10
16040;DHT22;8124;48.634;8.120;2023-03-23T23:02:13;18.30;91.50
16040;DHT22;8124;48.634;8.120;2023-03-23T23:07:18;18.20;92.30
16040;DHT22;8124;48.634;8.120;2023-03-23T23:12:22;18.10;93.30
16040;DHT22;8124;48.634;8.120;2023-03-23T23:17:26;18.00;93.80
16040;DHT22;8124;48.634;8.120;2023-03-23T23:22:32;18.00;94.20
16040;DHT22;8124;48.634;8.120;2023-03-23T23:27:35;18.10;94.60
16040;DHT22;8124;48.634;8.120;2023-03-23T23:32:38;18.10;94.70
16040;DHT22;8124;48.634;8.120;2023-03-23T23:37:45;18.10;94.70
16040;DHT22;8124;48.634;8.120;2023-03-23T23:42:49;18.10;94.40
16040;DHT22;8124;48.634;8.120;2023-03-23T23:47:53;18.10;94.20
16040;DHT22;8124;48.634;8.120;2023-03-23T23:52:58;18.20;93.90
16040;DHT22;8124;48.634;8.120;2023-03-23T23:58:01;18.30;93.60
